createdAt,value
2017-04-21T00:00:48.181Z,83.90
2017-04-21T00:01:48.715Z,83.90
2017-04-21T00:02:49.840Z,83.90
2017-04-21T00:03:49.806Z,84.00
2017-04-21T00:04:49.843Z,84.00
2017-04-21T00:05:49.642Z,84.00
2017-04-21T00:06:49.641Z,84.00
2017-04-21T00:07:49.967Z,84.00
2017-04-21T00:08:50.008Z,84.10
2017-04-21T00:09:49.793Z,84.20
2017-04-21T00:10:50.479Z,84.20
2017-04-21T00:11:50.803Z,84.20
2017-04-21T00:12:51.051Z,84.20
2017-04-21T00:13:51.104Z,84.20
2017-04-21T00:14:51.074Z,84.20
2017-04-21T00:15:51.170Z,84.30
2017-04-21T00:16:51.236Z,84.30
2017-04-21T00:17:51.389Z,84.20
2017-04-21T00:18:51.517Z,84.30
2017-04-21T00:19:51.513Z,84.40
2017-04-21T00:20:51.559Z,84.40
2017-04-21T00:21:51.557Z,84.40
2017-04-21T00:22:51.831Z,84.40
2017-04-21T00:23:51.918Z,84.50
2017-04-21T00:24:52.664Z,84.50
2017-04-21T00:25:52.623Z,84.50
2017-04-21T00:26:52.663Z,84.50
2017-04-21T00:27:53.066Z,84.50
2017-04-21T00:28:53.778Z,84.60
2017-04-21T00:29:53.829Z,84.50
2017-04-21T00:30:53.708Z,84.40
2017-04-21T00:31:53.453Z,84.80
2017-04-21T00:32:53.909Z,84.50
2017-04-21T00:33:53.909Z,84.60
2017-04-21T00:34:53.894Z,84.60
2017-04-21T00:35:53.902Z,84.60
2017-04-21T00:36:53.893Z,84.60
2017-04-21T00:37:54.033Z,84.60
2017-04-21T00:38:54.000Z,84.60
2017-04-21T00:39:54.824Z,84.60
2017-04-21T00:40:54.864Z,84.60
2017-04-21T00:41:54.832Z,84.60
2017-04-21T00:42:55.125Z,84.60
2017-04-21T00:43:55.083Z,84.60
2017-04-21T00:44:55.048Z,84.60
2017-04-21T00:45:55.021Z,84.60
2017-04-21T00:46:55.765Z,84.60
2017-04-21T00:47:56.069Z,84.60
2017-04-21T00:48:56.014Z,84.60
2017-04-21T00:49:56.739Z,84.50
2017-04-21T00:50:56.620Z,84.60
2017-04-21T00:51:56.694Z,84.60
2017-04-21T00:52:57.836Z,84.80
2017-04-21T00:53:58.542Z,84.90
2017-04-21T00:54:58.541Z,85.00
2017-04-21T00:55:58.503Z,85.70
2017-04-21T00:56:58.481Z,85.00
2017-04-21T00:57:58.541Z,85.00
2017-04-21T00:58:58.627Z,85.10
2017-04-21T00:59:58.617Z,85.00
2017-04-21T01:00:58.607Z,85.80
2017-04-21T01:01:58.617Z,85.10
2017-04-21T01:02:58.909Z,85.10
2017-04-21T01:03:59.028Z,85.20
2017-04-21T01:04:59.003Z,85.20
2017-04-21T01:05:59.039Z,85.20
2017-04-21T01:06:59.122Z,85.20
2017-04-21T01:07:59.437Z,85.20
2017-04-21T01:08:59.193Z,85.10
2017-04-21T01:09:58.978Z,85.20
2017-04-21T01:10:58.976Z,85.30
2017-04-21T01:11:59.025Z,85.60
2017-04-21T01:12:59.452Z,85.30
2017-04-21T01:13:59.495Z,85.40
2017-04-21T01:14:59.573Z,85.40
2017-04-21T01:15:59.629Z,85.40
2017-04-21T01:16:59.597Z,85.30
2017-04-21T01:17:59.923Z,85.30
2017-04-21T01:18:59.890Z,85.20
2017-04-21T01:19:59.894Z,85.30
2017-04-21T01:20:59.984Z,85.30
2017-04-21T01:22:00.034Z,85.40
2017-04-21T01:23:00.420Z,85.40
2017-04-21T01:24:00.380Z,85.40
2017-04-21T01:25:00.393Z,85.50
2017-04-21T01:26:00.389Z,85.50
2017-04-21T01:27:00.361Z,85.60
2017-04-21T01:28:00.688Z,85.60
2017-04-21T01:29:00.738Z,85.60
2017-04-21T01:30:00.771Z,85.70
2017-04-21T01:31:01.522Z,85.70
2017-04-21T01:32:01.347Z,85.70
2017-04-21T01:33:01.758Z,85.70
2017-04-21T01:34:02.515Z,85.80
2017-04-21T01:35:02.488Z,85.60
2017-04-21T01:36:03.114Z,85.70
2017-04-21T01:37:03.135Z,86.20
2017-04-21T01:38:03.420Z,85.80
2017-04-21T01:39:04.273Z,85.60
2017-04-21T01:40:04.334Z,85.60
2017-04-21T01:41:04.439Z,85.60
2017-04-21T01:42:04.173Z,85.60
2017-04-21T01:43:04.586Z,85.60
2017-04-21T01:44:05.093Z,86.40
2017-04-21T01:45:05.066Z,85.60
2017-04-21T01:46:05.064Z,85.60
2017-04-21T01:47:05.816Z,85.60
2017-04-21T01:48:06.173Z,85.50
2017-04-21T01:49:06.159Z,85.60
2017-04-21T01:50:06.065Z,85.70
2017-04-21T01:51:06.187Z,85.80
2017-04-21T01:52:06.122Z,85.80
2017-04-21T01:53:06.467Z,85.80
2017-04-21T01:54:06.475Z,85.90
2017-04-21T01:55:06.463Z,86.00
2017-04-21T01:56:06.471Z,86.10
2017-04-21T01:57:06.473Z,86.00
2017-04-21T01:58:06.814Z,86.20
2017-04-21T01:59:06.796Z,86.10
2017-04-21T02:00:06.564Z,86.30
2017-04-21T02:01:06.548Z,86.30
2017-04-21T02:02:06.584Z,87.20
2017-04-21T02:03:07.029Z,86.30
2017-04-21T02:04:07.010Z,86.30
2017-04-21T02:05:07.028Z,86.40
2017-04-21T02:06:07.093Z,86.30
2017-04-21T02:07:07.061Z,86.40
2017-04-21T02:08:08.185Z,86.40
2017-04-21T02:09:08.185Z,86.40
2017-04-21T02:10:08.232Z,86.40
2017-04-21T02:11:08.982Z,86.40
2017-04-21T02:12:09.005Z,86.40
2017-04-21T02:13:09.112Z,86.50
2017-04-21T02:14:09.902Z,86.40
2017-04-21T02:15:10.044Z,87.00
2017-04-21T02:16:09.993Z,86.30
2017-04-21T02:17:09.809Z,86.40
2017-04-21T02:18:09.919Z,86.30
2017-04-21T02:19:09.925Z,86.40
2017-04-21T02:20:10.056Z,86.50
2017-04-21T02:21:10.055Z,86.50
2017-04-21T02:22:10.124Z,86.60
2017-04-21T02:23:11.641Z,86.50
2017-04-21T02:24:11.751Z,86.60
2017-04-21T02:25:11.787Z,86.60
2017-04-21T02:26:11.775Z,86.60
2017-04-21T02:27:11.773Z,86.60
2017-04-21T02:28:12.007Z,86.70
2017-04-21T02:29:12.078Z,86.80
2017-04-21T02:30:12.094Z,86.70
2017-04-21T02:31:12.120Z,86.90
2017-04-21T02:32:12.108Z,87.00
2017-04-21T02:33:12.535Z,87.10
2017-04-21T02:34:12.534Z,87.10
2017-04-21T02:35:12.583Z,87.20
2017-04-21T02:36:12.622Z,87.30
2017-04-21T02:37:12.575Z,87.40
2017-04-21T02:38:12.987Z,87.40
2017-04-21T02:39:13.005Z,87.50
2017-04-21T02:40:13.713Z,87.40
2017-04-21T02:41:13.796Z,87.40
2017-04-21T02:42:13.805Z,87.50
2017-04-21T02:43:14.158Z,87.50
2017-04-21T02:44:14.095Z,87.70
2017-04-21T02:45:14.046Z,87.60
2017-04-21T02:46:14.017Z,87.60
2017-04-21T02:47:13.779Z,87.70
2017-04-21T02:48:14.623Z,87.80
2017-04-21T02:49:20.866Z,87.90
2017-04-21T02:50:20.837Z,87.90
2017-04-21T02:51:20.873Z,87.90
2017-04-21T02:52:20.854Z,88.00
2017-04-21T02:53:21.275Z,88.00
2017-04-21T02:54:21.249Z,88.00
2017-04-21T02:55:21.228Z,88.00
2017-04-21T02:56:21.213Z,88.30
2017-04-21T02:57:21.236Z,88.20
2017-04-21T02:58:21.632Z,88.30
2017-04-21T02:59:21.630Z,88.30
2017-04-21T03:00:21.702Z,88.20
2017-04-21T03:01:21.674Z,88.30
2017-04-21T03:02:21.632Z,88.30
2017-04-21T03:03:22.049Z,88.20
2017-04-21T03:04:22.079Z,88.20
2017-04-21T03:05:22.085Z,88.20
2017-04-21T03:06:22.122Z,88.20
2017-04-21T03:07:22.109Z,88.20
2017-04-21T03:08:22.508Z,88.30
2017-04-21T03:09:23.225Z,88.30
2017-04-21T03:10:24.003Z,88.30
2017-04-21T03:11:23.990Z,88.30
2017-04-21T03:12:23.961Z,88.30
2017-04-21T03:13:25.084Z,88.30
2017-04-21T03:14:25.072Z,88.30
2017-04-21T03:15:25.093Z,88.40
2017-04-21T03:16:25.139Z,88.30
2017-04-21T03:17:25.087Z,88.40
2017-04-21T03:18:25.441Z,88.50
2017-04-21T03:19:25.396Z,88.50
2017-04-21T03:20:25.405Z,88.50
2017-04-21T03:21:25.362Z,88.50
2017-04-21T03:22:25.351Z,88.40
2017-04-21T03:23:27.452Z,88.40
2017-04-21T03:24:27.427Z,88.50
2017-04-21T03:25:27.424Z,88.50
2017-04-21T03:26:27.399Z,88.60
2017-04-21T03:27:27.369Z,88.70
2017-04-21T03:28:27.744Z,88.60
2017-04-21T03:29:28.467Z,90.00
2017-04-21T03:30:29.175Z,91.00
2017-04-21T03:31:29.159Z,91.60
2017-04-21T03:32:29.166Z,91.80
2017-04-21T03:33:29.497Z,92.70
2017-04-21T03:34:29.479Z,94.00
2017-04-21T03:35:29.409Z,94.20
2017-04-21T03:36:29.420Z,94.00
2017-04-21T03:37:29.341Z,93.90
2017-04-21T03:38:30.399Z,93.30
2017-04-21T03:39:30.358Z,92.80
2017-04-21T03:42:00.816Z,90.70
2017-04-21T03:43:00.798Z,90.30
2017-04-21T03:44:03.664Z,88.70
2017-04-21T03:45:03.733Z,87.00
2017-04-21T03:46:03.770Z,86.00
2017-04-21T03:47:05.742Z,84.10
2017-04-21T03:48:06.586Z,84.00
2017-04-21T03:49:06.665Z,84.10
2017-04-21T03:50:06.654Z,84.10
2017-04-21T03:51:06.673Z,82.80
2017-04-21T03:52:06.617Z,81.00
2017-04-21T03:53:06.546Z,80.70
2017-04-21T03:54:06.860Z,79.50
2017-04-21T03:55:06.794Z,78.40
2017-04-21T03:56:06.743Z,79.00
2017-04-21T03:57:06.689Z,78.20
2017-04-21T03:58:06.733Z,77.60
2017-04-21T03:59:07.826Z,76.40
2017-04-21T04:00:07.838Z,76.30
2017-04-21T04:01:07.815Z,76.10
2017-04-21T04:02:07.757Z,75.50
2017-04-21T04:03:07.712Z,74.70
2017-04-21T04:04:08.086Z,73.50
2017-04-21T04:05:08.037Z,72.90
2017-04-21T04:06:08.093Z,73.40
2017-04-21T04:07:08.088Z,73.00
2017-04-21T04:08:07.923Z,73.40
2017-04-21T04:09:09.715Z,73.90
2017-04-21T04:10:09.808Z,74.40
2017-04-21T04:11:09.792Z,74.90
2017-04-21T04:12:09.591Z,75.40
2017-04-21T04:13:09.526Z,76.50
2017-04-21T04:14:09.906Z,76.40
2017-04-21T04:15:09.860Z,76.70
2017-04-21T04:16:09.786Z,77.20
2017-04-21T04:17:09.752Z,77.70
2017-04-21T04:18:09.827Z,78.30
2017-04-21T04:19:10.968Z,78.20
2017-04-21T04:20:10.906Z,78.90
2017-04-21T04:21:10.822Z,80.10
2017-04-21T04:22:10.816Z,80.10
2017-04-21T04:23:10.761Z,80.50
2017-04-21T04:24:11.110Z,81.50
2017-04-21T04:25:11.101Z,86.90
2017-04-21T04:26:11.090Z,90.40
2017-04-21T04:27:10.904Z,90.50
2017-04-21T04:28:11.591Z,89.30
2017-04-21T04:29:11.903Z,87.00
2017-04-21T04:30:11.805Z,85.00
2017-04-21T04:31:11.822Z,83.60
2017-04-21T04:32:11.769Z,82.60
2017-04-21T04:33:11.691Z,82.80
2017-04-21T04:34:12.039Z,81.70
2017-04-21T04:35:12.053Z,81.70
2017-04-21T04:36:12.075Z,81.60
2017-04-21T04:37:12.761Z,81.60
2017-04-21T04:38:13.034Z,81.80
2017-04-21T04:39:13.406Z,81.90
2017-04-21T04:40:13.412Z,82.10
2017-04-21T04:41:13.351Z,82.30
2017-04-21T04:42:13.307Z,82.30
2017-04-21T04:43:13.326Z,82.40
2017-04-21T04:44:13.733Z,82.60
2017-04-21T04:45:13.727Z,82.80
2017-04-21T04:46:13.805Z,83.10
2017-04-21T04:47:13.626Z,83.30
2017-04-21T04:48:13.491Z,83.50
2017-04-21T04:49:14.624Z,83.70
2017-04-21T04:50:15.346Z,83.80
2017-04-21T04:51:15.325Z,84.00
2017-04-21T04:52:15.315Z,84.10
2017-04-21T04:53:15.318Z,84.40
2017-04-21T04:54:15.367Z,84.50
2017-04-21T04:55:15.371Z,84.70
2017-04-21T04:56:16.066Z,84.80
2017-04-21T04:57:16.060Z,85.00
2017-04-21T04:58:16.786Z,85.20
2017-04-21T04:59:17.126Z,85.30
2017-04-21T05:00:17.908Z,85.50
2017-04-21T05:01:17.902Z,85.50
2017-04-21T05:02:17.828Z,85.50
2017-04-21T05:03:17.860Z,85.60
2017-04-21T05:04:18.172Z,85.70
2017-04-21T05:05:18.211Z,85.70
2017-04-21T05:06:18.271Z,85.70
2017-04-21T05:07:18.247Z,85.70
2017-04-21T05:08:18.224Z,85.70
2017-04-21T05:09:18.609Z,85.70
2017-04-21T05:10:18.642Z,85.60
2017-04-21T05:11:19.421Z,85.70
2017-04-21T05:12:19.377Z,85.70
2017-04-21T05:13:19.439Z,85.80
2017-04-21T05:14:19.772Z,85.90
2017-04-21T05:15:19.735Z,85.90
2017-04-21T05:16:19.726Z,86.00
2017-04-21T05:17:19.647Z,86.00
2017-04-21T05:18:19.619Z,86.10
2017-04-21T05:22:30.657Z,86.40
2017-04-21T05:23:30.696Z,86.40
2017-04-21T05:24:31.396Z,86.50
2017-04-21T05:25:31.359Z,86.50
2017-04-21T05:26:31.152Z,86.60
2017-04-21T05:27:31.527Z,86.80
2017-04-21T05:28:31.482Z,86.90
2017-04-21T05:29:31.620Z,87.00
2017-04-21T05:30:31.624Z,87.00
2017-04-21T05:32:55.816Z,86.70
2017-04-21T05:33:55.870Z,86.60
2017-04-21T05:34:55.994Z,86.60
2017-04-21T05:35:55.926Z,86.60
2017-04-21T05:36:55.927Z,86.70
2017-04-21T05:37:56.207Z,86.20
2017-04-21T05:38:56.165Z,86.10
2017-04-21T05:39:56.342Z,85.90
2017-04-21T05:40:56.341Z,85.70
2017-04-21T05:41:56.295Z,85.60
2017-04-21T05:42:57.133Z,85.70
2017-04-21T05:43:57.136Z,85.70
2017-04-21T05:44:57.839Z,85.70
2017-04-21T05:45:57.800Z,85.60
2017-04-21T05:46:57.759Z,85.50
2017-04-21T05:47:58.591Z,85.20
2017-04-21T05:48:59.296Z,85.20
2017-04-21T05:49:59.223Z,85.10
2017-04-21T05:50:59.887Z,84.60
2017-04-21T05:51:59.830Z,84.20
2017-04-21T05:52:59.950Z,83.80
2017-04-21T05:54:00.007Z,83.80
2017-04-21T05:55:01.480Z,83.90
2017-04-21T05:56:01.207Z,83.60
2017-04-21T05:57:01.179Z,83.30
2017-04-21T05:58:01.509Z,83.00
2017-04-21T05:59:01.324Z,82.70
2017-04-21T06:00:02.030Z,82.30
2017-04-21T06:01:01.763Z,82.10
2017-04-21T06:02:01.582Z,81.80
2017-04-21T06:03:01.842Z,81.70
2017-04-21T06:04:01.788Z,81.80
2017-04-21T06:05:01.736Z,82.80
2017-04-21T06:06:01.769Z,85.60
2017-04-21T06:07:02.594Z,86.30
2017-04-21T06:08:02.914Z,85.30
2017-04-21T06:09:03.036Z,83.60
2017-04-21T06:10:03.030Z,83.60
2017-04-21T06:11:03.757Z,83.00
2017-04-21T06:12:03.716Z,82.30
2017-04-21T06:13:04.154Z,81.40
2017-04-21T06:14:04.201Z,81.20
2017-04-21T06:15:04.215Z,81.40
2017-04-21T06:16:04.092Z,81.30
2017-04-21T06:17:04.232Z,81.50
2017-04-21T06:18:04.600Z,81.00
2017-04-21T06:19:04.593Z,80.40
2017-04-21T06:20:04.583Z,79.80
2017-04-21T06:21:04.669Z,80.00
2017-04-21T06:22:04.637Z,80.20
2017-04-21T06:23:05.741Z,80.10
2017-04-21T06:24:05.694Z,80.40
2017-04-21T06:25:05.726Z,80.00
2017-04-21T06:26:05.563Z,79.80
2017-04-21T06:27:05.568Z,79.40
2017-04-21T06:28:05.912Z,79.60
2017-04-21T06:29:05.930Z,79.40
2017-04-21T06:30:05.918Z,78.90
2017-04-21T06:31:05.978Z,78.20
2017-04-21T06:32:06.053Z,77.60
2017-04-21T06:33:06.404Z,77.10
2017-04-21T06:34:06.412Z,76.60
2017-04-21T06:35:06.267Z,75.90
2017-04-21T06:36:06.293Z,75.00
2017-04-21T06:37:06.277Z,74.70
2017-04-21T06:38:06.617Z,73.90
2017-04-21T06:39:06.563Z,73.60
2017-04-21T06:40:06.539Z,73.40
2017-04-21T06:41:06.391Z,73.70
2017-04-21T06:42:06.502Z,74.00
2017-04-21T06:43:07.609Z,73.90
2017-04-21T06:44:07.615Z,73.60
2017-04-21T06:45:07.672Z,73.40
2017-04-21T06:46:07.631Z,73.10
2017-04-21T06:47:07.611Z,72.60
2017-04-21T06:48:07.616Z,72.90
2017-04-21T06:49:08.373Z,73.40
2017-04-21T06:50:09.051Z,72.30
2017-04-21T06:51:09.028Z,71.70
2017-04-21T06:52:09.009Z,71.40
2017-04-21T06:53:10.142Z,70.40
2017-04-21T06:54:10.848Z,70.70
2017-04-21T06:55:11.086Z,70.20
2017-04-21T06:56:11.859Z,70.30
2017-04-21T06:57:11.856Z,70.10
2017-04-21T06:58:12.154Z,70.00
2017-04-21T06:59:12.147Z,69.60
2017-04-21T07:00:12.154Z,69.80
2017-04-21T07:01:12.176Z,69.60
2017-04-21T07:02:12.146Z,69.50
2017-04-21T07:03:12.549Z,69.40
2017-04-21T07:04:12.589Z,69.00
2017-04-21T07:05:12.582Z,68.80
2017-04-21T07:06:12.653Z,68.60
2017-04-21T07:07:12.794Z,68.80
2017-04-21T07:08:13.894Z,68.00
2017-04-21T07:09:13.866Z,67.50
2017-04-21T07:10:13.852Z,67.20
2017-04-21T07:11:13.596Z,67.20
2017-04-21T07:12:13.600Z,66.40
2017-04-21T07:13:14.336Z,66.10
2017-04-21T07:14:15.064Z,65.70
2017-04-21T07:15:18.050Z,65.30
2017-04-21T07:16:17.982Z,65.10
2017-04-21T07:17:18.026Z,65.40
2017-04-21T07:18:18.306Z,65.40
2017-04-21T07:19:18.342Z,65.30
2017-04-21T07:20:18.264Z,64.40
2017-04-21T07:21:18.230Z,63.80
2017-04-21T07:22:18.164Z,63.60
2017-04-21T07:23:18.498Z,63.50
2017-04-21T07:24:18.477Z,63.60
2017-04-21T07:25:18.458Z,63.60
2017-04-21T07:26:18.446Z,62.80
2017-04-21T07:27:18.483Z,62.90
2017-04-21T07:28:18.852Z,63.00
2017-04-21T07:29:19.594Z,63.10
2017-04-21T07:30:20.589Z,63.30
2017-04-21T07:31:20.557Z,62.80
2017-04-21T07:32:20.517Z,62.50
2017-04-21T07:33:20.803Z,62.40
2017-04-21T07:34:20.770Z,62.20
2017-04-21T07:35:20.714Z,61.80
2017-04-21T07:36:20.787Z,61.40
2017-04-21T07:37:20.835Z,60.00
2017-04-21T07:38:21.241Z,59.20
2017-04-21T07:39:21.169Z,58.90
2017-04-21T07:40:21.193Z,58.40
2017-04-21T07:41:21.807Z,58.30
2017-04-21T07:42:21.838Z,58.60
2017-04-21T07:43:22.117Z,59.20
2017-04-21T07:44:22.904Z,59.80
2017-04-21T07:45:22.856Z,60.00
2017-04-21T07:46:22.892Z,59.60
2017-04-21T07:47:22.854Z,59.40
2017-04-21T07:48:23.196Z,59.10
2017-04-21T07:49:23.223Z,58.70
2017-04-21T07:50:23.174Z,59.00
2017-04-21T07:51:23.181Z,59.40
2017-04-21T07:52:23.295Z,59.60
2017-04-21T07:53:23.534Z,59.00
2017-04-21T07:54:23.524Z,58.90
2017-04-21T07:55:23.571Z,58.50
2017-04-21T07:56:23.644Z,58.50
2017-04-21T07:57:23.595Z,59.20
2017-04-21T07:58:23.918Z,59.70
2017-04-21T07:59:23.877Z,60.40
2017-04-21T08:00:23.956Z,61.30
2017-04-21T08:01:23.942Z,61.40
2017-04-21T08:02:23.941Z,60.00
2017-04-21T08:03:24.248Z,60.20
2017-04-21T08:04:24.253Z,59.40
2017-04-21T08:05:24.261Z,58.30
2017-04-21T08:06:24.309Z,58.50
2017-04-21T08:07:24.320Z,60.00
2017-04-21T08:08:24.693Z,60.30
2017-04-21T08:09:24.686Z,59.90
2017-04-21T08:10:24.543Z,59.80
2017-04-21T08:11:25.318Z,58.60
2017-04-21T08:12:25.337Z,57.20
2017-04-21T08:13:25.677Z,56.10
2017-04-21T08:14:25.685Z,55.10
2017-04-21T08:15:25.759Z,55.30
2017-04-21T08:16:25.757Z,55.70
2017-04-21T08:17:25.777Z,56.20
2017-04-21T08:18:26.112Z,55.50
2017-04-21T08:19:26.831Z,55.10
2017-04-21T08:20:26.808Z,54.80
2017-04-21T08:21:26.818Z,54.90
2017-04-21T08:22:26.994Z,54.60
2017-04-21T08:23:27.380Z,53.20
2017-04-21T08:24:27.490Z,52.80
2017-04-21T08:25:28.166Z,53.00
2017-04-21T08:26:28.914Z,52.50
2017-04-21T08:27:28.840Z,52.30
2017-04-21T08:28:29.867Z,52.30
2017-04-21T08:29:29.892Z,51.70
2017-04-21T08:30:29.839Z,51.30
2017-04-21T08:31:29.830Z,50.90
2017-04-21T08:32:29.808Z,50.80
2017-04-21T08:33:30.175Z,51.20
2017-04-21T08:34:30.012Z,51.70
2017-04-21T08:35:30.028Z,51.30
2017-04-21T08:36:29.958Z,51.10
2017-04-21T08:37:29.927Z,48.90
2017-04-21T08:38:31.023Z,48.30
2017-04-21T08:39:31.007Z,49.10
2017-04-21T08:40:30.998Z,50.00
2017-04-21T08:41:30.754Z,50.70
2017-04-21T08:42:30.841Z,50.90
2017-04-21T08:43:31.262Z,50.30
2017-04-21T08:44:31.842Z,50.20
2017-04-21T08:45:31.583Z,50.00
2017-04-21T08:46:31.600Z,49.70
2017-04-21T08:47:31.566Z,49.50
2017-04-21T08:48:32.053Z,48.80
2017-04-21T08:49:32.005Z,48.60
2017-04-21T08:50:32.029Z,49.10
2017-04-21T08:51:32.001Z,48.70
2017-04-21T08:52:31.974Z,48.50
2017-04-21T08:53:32.466Z,48.70
2017-04-21T08:54:32.487Z,49.20
2017-04-21T08:55:32.474Z,49.30
2017-04-21T08:56:33.218Z,49.10
2017-04-21T08:57:34.153Z,48.60
2017-04-21T08:58:34.424Z,48.40
2017-04-21T08:59:34.428Z,47.80
2017-04-21T09:00:34.505Z,48.00
2017-04-21T09:01:34.533Z,47.90
2017-04-21T09:02:35.236Z,48.00
2017-04-21T09:03:35.531Z,48.30
2017-04-21T09:04:35.610Z,48.30
2017-04-21T09:05:36.363Z,48.50
2017-04-21T09:06:36.328Z,48.60
2017-04-21T09:07:36.376Z,48.10
2017-04-21T09:08:36.739Z,48.70
2017-04-21T09:09:36.686Z,47.80
2017-04-21T09:10:36.635Z,46.80
2017-04-21T09:11:37.348Z,46.40
2017-04-21T09:12:37.558Z,46.30
2017-04-21T09:13:37.839Z,46.50
2017-04-21T09:14:37.914Z,46.60
2017-04-21T09:15:37.881Z,47.30
2017-04-21T09:16:37.988Z,47.60
2017-04-21T09:17:37.965Z,48.10
2017-04-21T09:18:38.326Z,48.80
2017-04-21T09:19:38.409Z,48.00
2017-04-21T09:20:38.359Z,47.10
2017-04-21T09:21:38.376Z,47.20
2017-04-21T09:22:39.070Z,47.60
2017-04-21T09:23:39.289Z,47.50
2017-04-21T09:24:39.283Z,47.50
2017-04-21T09:25:39.345Z,47.50
2017-04-21T09:26:39.266Z,47.50
2017-04-21T09:27:39.332Z,47.20
2017-04-21T09:28:40.509Z,46.80
2017-04-21T09:29:41.272Z,46.50
2017-04-21T09:30:41.225Z,46.60
2017-04-21T09:31:41.148Z,46.30
2017-04-21T09:32:41.211Z,46.50
2017-04-21T09:33:41.606Z,46.40
2017-04-21T09:34:41.538Z,46.50
2017-04-21T09:35:41.565Z,46.60
2017-04-21T09:36:41.572Z,46.90
2017-04-21T09:37:41.351Z,46.50
2017-04-21T09:38:42.457Z,46.20
2017-04-21T09:39:42.585Z,45.80
2017-04-21T09:40:43.384Z,46.10
2017-04-21T09:41:43.457Z,46.90
2017-04-21T09:42:51.587Z,48.40
2017-04-21T09:43:51.895Z,48.40
2017-04-21T09:44:51.961Z,48.30
2017-04-21T09:45:51.866Z,49.40
2017-04-21T09:46:51.878Z,48.80
2017-04-21T09:47:51.895Z,47.30
2017-04-21T09:48:52.233Z,47.60
2017-04-21T09:49:52.165Z,48.00
2017-04-21T09:50:52.670Z,47.60
2017-04-21T09:52:44.012Z,47.60
2017-04-21T09:53:34.119Z,47.80
2017-04-21T09:54:52.991Z,48.80
2017-04-21T09:56:47.394Z,48.10
2017-04-21T09:57:04.296Z,47.80
2017-04-21T09:58:30.531Z,48.10
2017-04-21T10:01:52.994Z,47.60
2017-04-21T10:02:28.201Z,47.50
2017-04-21T10:02:39.565Z,47.40
2017-04-21T10:04:00.300Z,47.10
2017-04-21T10:04:11.437Z,48.00
2017-04-21T10:04:54.032Z,46.90
2017-04-21T10:05:10.146Z,47.10
2017-04-21T10:05:54.028Z,46.60
2017-04-21T10:07:00.726Z,47.60
2017-04-21T10:07:39.154Z,45.80
2017-04-21T10:08:11.924Z,45.40
2017-04-21T10:08:54.533Z,46.10
2017-04-21T10:09:54.504Z,45.90
2017-04-21T10:10:55.301Z,46.60
2017-04-21T10:11:55.297Z,46.70
2017-04-21T10:12:55.525Z,45.90
2017-04-21T10:13:55.815Z,45.30
2017-04-21T10:14:55.771Z,45.30
2017-04-21T10:15:55.724Z,44.90
2017-04-21T10:16:55.550Z,44.20
2017-04-21T10:17:55.610Z,44.20
2017-04-21T10:18:56.621Z,45.00
2017-04-21T10:19:56.666Z,44.10
2017-04-21T10:20:59.527Z,43.10
2017-04-21T10:22:00.267Z,42.60
2017-04-21T10:23:00.258Z,41.30
2017-04-21T10:24:01.349Z,40.90
2017-04-21T10:25:01.382Z,40.70
2017-04-21T10:26:01.326Z,41.10
2017-04-21T10:27:01.334Z,41.40
2017-04-21T10:28:01.087Z,40.80
2017-04-21T10:29:01.217Z,39.70
2017-04-21T10:30:01.157Z,38.90
2017-04-21T10:31:01.073Z,39.10
2017-04-21T10:32:02.021Z,39.30
2017-04-21T10:33:02.830Z,38.80
2017-04-21T10:34:03.164Z,38.90
2017-04-21T10:35:03.238Z,39.20
2017-04-21T10:36:03.338Z,38.80
2017-04-21T10:37:03.316Z,38.00
2017-04-21T10:38:04.062Z,37.40
2017-04-21T10:39:04.862Z,37.30
2017-04-21T10:40:04.846Z,37.10
2017-04-21T10:41:04.825Z,36.70
2017-04-21T10:42:04.823Z,36.40
2017-04-21T10:43:04.822Z,36.00
2017-04-21T10:44:05.170Z,35.60
2017-04-21T10:45:05.156Z,35.10
2017-04-21T10:46:05.137Z,35.30
2017-04-21T10:47:05.127Z,35.90
2017-04-21T10:48:05.124Z,36.00
2017-04-21T10:49:05.522Z,36.20
2017-04-21T10:50:06.570Z,36.90
2017-04-21T10:51:06.507Z,36.90
2017-04-21T10:52:06.498Z,36.90
2017-04-21T10:53:06.490Z,37.30
2017-04-21T10:54:06.858Z,38.10
2017-04-21T10:55:06.853Z,38.50
2017-04-21T10:56:06.868Z,38.20
2017-04-21T10:57:06.609Z,37.90
2017-04-21T10:58:06.435Z,36.90
2017-04-21T10:59:06.419Z,37.50
2017-04-21T11:00:06.884Z,37.00
2017-04-21T11:01:06.853Z,36.80
2017-04-21T11:02:06.827Z,37.30
2017-04-21T11:03:06.900Z,37.80
2017-04-21T11:04:06.852Z,38.30
2017-04-21T11:05:07.994Z,38.10
2017-04-21T11:06:08.025Z,38.70
2017-04-21T11:07:08.034Z,37.30
2017-04-21T11:08:08.056Z,35.70
2017-04-21T11:09:08.029Z,35.80
2017-04-21T11:10:08.225Z,36.10
2017-04-21T11:11:08.918Z,34.80
2017-04-21T11:12:08.966Z,34.90
2017-04-21T11:13:08.982Z,35.40
2017-04-21T11:14:09.002Z,35.50
2017-04-21T11:15:09.419Z,35.50
2017-04-21T11:16:09.575Z,35.80
2017-04-21T11:17:10.106Z,36.20
2017-04-21T11:18:10.056Z,36.50
2017-04-21T11:19:10.013Z,37.00
2017-04-21T11:20:11.122Z,36.80
2017-04-21T11:21:11.228Z,36.70
2017-04-21T11:22:11.225Z,36.70
2017-04-21T11:23:11.995Z,35.90
2017-04-21T11:24:11.994Z,36.00
2017-04-21T11:25:12.375Z,36.10
2017-04-21T11:26:12.454Z,36.60
2017-04-21T11:27:12.452Z,35.80
2017-04-21T11:28:12.395Z,36.10
2017-04-21T11:29:12.461Z,36.00
2017-04-21T11:30:12.822Z,36.10
2017-04-21T11:31:12.877Z,36.60
2017-04-21T11:32:13.023Z,37.10
2017-04-21T11:33:13.089Z,37.30
2017-04-21T11:34:13.084Z,36.60
2017-04-21T11:35:13.431Z,37.00
2017-04-21T11:36:13.404Z,38.40
2017-04-21T11:37:13.376Z,39.40
2017-04-21T11:38:13.392Z,38.40
2017-04-21T11:39:13.417Z,38.10
2017-04-21T11:40:14.558Z,38.00
2017-04-21T11:41:14.573Z,38.70
2017-04-21T11:42:14.723Z,38.20
2017-04-21T11:43:14.731Z,37.50
2017-04-21T11:44:14.945Z,36.50
2017-04-21T11:45:15.308Z,36.30
2017-04-21T11:46:15.323Z,37.00
2017-04-21T11:47:15.310Z,35.50
2017-04-21T11:48:16.037Z,35.70
2017-04-21T11:49:16.058Z,35.40
2017-04-21T11:50:16.460Z,34.60
2017-04-21T11:51:16.459Z,35.30
2017-04-21T11:52:16.912Z,36.20
2017-04-21T11:53:16.922Z,36.10
2017-04-21T11:54:16.976Z,35.00
2017-04-21T11:55:17.999Z,35.60
2017-04-21T11:56:17.770Z,33.30
2017-04-21T11:57:17.541Z,33.00
2017-04-21T11:58:17.590Z,33.00
2017-04-21T11:59:17.633Z,33.10
2017-04-21T12:00:18.740Z,32.30
2017-04-21T12:01:18.807Z,32.10
2017-04-21T12:02:19.601Z,32.50
2017-04-21T12:03:19.655Z,33.10
2017-04-21T12:04:19.650Z,33.90
2017-04-21T12:05:19.990Z,35.00
2017-04-21T12:06:20.192Z,34.70
2017-04-21T12:07:20.173Z,34.30
2017-04-21T12:08:20.105Z,33.80
2017-04-21T12:09:20.050Z,33.40
2017-04-21T12:10:20.534Z,33.30
2017-04-21T12:11:21.585Z,33.50
2017-04-21T12:12:21.572Z,33.70
2017-04-21T12:13:21.528Z,33.90
2017-04-21T12:14:21.507Z,33.60
2017-04-21T12:15:21.900Z,34.10
2017-04-21T12:16:21.933Z,34.30
2017-04-21T12:17:22.644Z,34.50
2017-04-21T12:18:22.630Z,34.10
2017-04-21T12:19:22.646Z,34.80
2017-04-21T12:20:23.065Z,34.90
2017-04-21T12:21:23.070Z,34.50
2017-04-21T12:22:23.054Z,34.70
2017-04-21T12:23:23.065Z,34.20
2017-04-21T12:24:23.029Z,33.50
2017-04-21T12:25:23.420Z,33.50
2017-04-21T12:26:24.186Z,33.80
2017-04-21T12:27:24.153Z,33.50
2017-04-21T12:28:24.883Z,34.00
2017-04-21T12:29:25.609Z,34.00
2017-04-21T12:30:25.882Z,34.10
2017-04-21T12:31:25.825Z,34.20
2017-04-21T12:32:25.839Z,35.10
2017-04-21T12:33:25.798Z,35.20
2017-04-21T12:34:25.793Z,35.10
2017-04-21T12:35:26.194Z,34.90
2017-04-21T12:36:26.220Z,35.00
2017-04-21T12:37:26.230Z,34.50
2017-04-21T12:38:26.203Z,33.90
2017-04-21T12:39:26.248Z,33.00
2017-04-21T12:40:26.516Z,32.60
2017-04-21T12:41:26.537Z,32.00
2017-04-21T12:42:26.549Z,32.00
2017-04-21T12:43:26.910Z,31.60
2017-04-21T12:44:27.636Z,31.60
2017-04-21T12:45:28.040Z,30.80
2017-04-21T12:46:28.809Z,30.90
2017-04-21T12:47:28.901Z,30.70
2017-04-21T12:48:29.158Z,30.70
2017-04-21T12:49:28.843Z,30.90
2017-04-21T12:50:29.000Z,30.70
2017-04-21T12:51:29.026Z,30.40
2017-04-21T12:52:28.956Z,30.00
2017-04-21T12:53:29.554Z,30.40
2017-04-21T12:54:29.562Z,31.20
2017-04-21T12:55:29.947Z,32.00
2017-04-21T12:56:29.759Z,32.40
2017-04-21T12:57:29.566Z,32.70
2017-04-21T12:58:29.575Z,32.70
2017-04-21T12:59:29.572Z,32.80
2017-04-21T13:00:29.875Z,31.40
2017-04-21T13:01:29.919Z,31.50